sensor_id;sensor_type;location;lat;lon;timestamp;P1;durP1;ratioP1;P2;durP2;ratioP2
12567;SDS011;6349;50.904;6.136;2022-07-23T00:01:46;3.22;;;2.92;;
12567;SDS011;6349;50.904;6.136;2022-07-23T00:03:47;2.80;;;2.60;;
12567;SDS011;6349;50.904;6.136;2022-07-23T00:05:49;3.25;;;3.03;;
12567;SDS011;6349;50.904;6.136;2022-07-23T00:07:49;5.13;;;3.58;;
12567;SDS011;6349;50.904;6.136;2022-07-23T00:09:50;4.05;;;3.70;;
12567;SDS011;6349;50.904;6.136;2022-07-23T00:11:51;3.30;;;3.10;;
12567;SDS011;6349;50.904;6.136;2022-07-23T00:13:52;3.70;;;3.40;;
12567;SDS011;6349;50.904;6.136;2022-07-23T00:15:55;3.20;;;2.95;;
12567;SDS011;6349;50.904;6.136;2022-07-23T00:17:55;3.50;;;2.97;;
12567;SDS011;6349;50.904;6.136;2022-07-23T00:19:56;4.28;;;3.80;;
12567;SDS011;6349;50.904;6.136;2022-07-23T00:21:57;4.90;;;4.45;;
12567;SDS011;6349;50.904;6.136;2022-07-23T00:23:57;3.90;;;3.50;;
12567;SDS011;6349;50.904;6.136;2022-07-23T00:25:58;3.80;;;3.33;;
12567;SDS011;6349;50.904;6.136;2022-07-23T00:27:59;3.20;;;2.90;;
12567;SDS011;6349;50.904;6.136;2022-07-23T00:30:00;2.83;;;2.58;;
12567;SDS011;6349;50.904;6.136;2022-07-23T00:32:01;4.28;;;3.35;;
12567;SDS011;6349;50.904;6.136;2022-07-23T00:34:02;5.63;;;4.30;;
12567;SDS011;6349;50.904;6.136;2022-07-23T00:36:03;3.83;;;3.53;;
12567;SDS011;6349;50.904;6.136;2022-07-23T00:38:04;3.17;;;2.88;;
12567;SDS011;6349;50.904;6.136;2022-07-23T00:40:05;3.50;;;3.20;;
12567;SDS011;6349;50.904;6.136;2022-07-23T00:42:06;3.15;;;2.85;;
12567;SDS011;6349;50.904;6.136;2022-07-23T00:44:17;3.92;;;3.33;;
12567;SDS011;6349;50.904;6.136;2022-07-23T00:46:22;4.43;;;3.40;;
12567;SDS011;6349;50.904;6.136;2022-07-23T00:48:23;3.78;;;3.47;;
12567;SDS011;6349;50.904;6.136;2022-07-23T00:50:24;3.38;;;3.08;;
12567;SDS011;6349;50.904;6.136;2022-07-23T00:52:25;3.10;;;2.90;;
12567;SDS011;6349;50.904;6.136;2022-07-23T00:54:26;4.22;;;3.63;;
12567;SDS011;6349;50.904;6.136;2022-07-23T00:56:27;3.30;;;3.00;;
12567;SDS011;6349;50.904;6.136;2022-07-23T00:58:28;3.22;;;2.92;;
12567;SDS011;6349;50.904;6.136;2022-07-23T01:00:28;2.80;;;2.60;;
12567;SDS011;6349;50.904;6.136;2022-07-23T01:02:29;2.33;;;2.17;;
12567;SDS011;6349;50.904;6.136;2022-07-23T01:04:29;2.60;;;2.40;;
12567;SDS011;6349;50.904;6.136;2022-07-23T01:06:32;2.65;;;2.45;;
12567;SDS011;6349;50.904;6.136;2022-07-23T01:08:35;2.97;;;2.70;;
12567;SDS011;6349;50.904;6.136;2022-07-23T01:10:36;3.75;;;3.08;;
12567;SDS011;6349;50.904;6.136;2022-07-23T01:12:37;4.13;;;3.50;;
12567;SDS011;6349;50.904;6.136;2022-07-23T01:14:37;3.00;;;2.78;;
12567;SDS011;6349;50.904;6.136;2022-07-23T01:16:39;3.35;;;3.05;;
12567;SDS011;6349;50.904;6.136;2022-07-23T01:18:41;2.78;;;2.58;;
12567;SDS011;6349;50.904;6.136;2022-07-23T01:20:42;3.20;;;2.90;;
12567;SDS011;6349;50.904;6.136;2022-07-23T01:22:43;2.40;;;2.20;;
12567;SDS011;6349;50.904;6.136;2022-07-23T01:24:44;2.63;;;2.42;;
12567;SDS011;6349;50.904;6.136;2022-07-23T01:26:45;2.67;;;2.47;;
12567;SDS011;6349;50.904;6.136;2022-07-23T01:28:47;2.30;;;2.10;;
12567;SDS011;6349;50.904;6.136;2022-07-23T01:30:47;3.47;;;3.17;;
12567;SDS011;6349;50.904;6.136;2022-07-23T01:32:48;3.40;;;3.10;;
12567;SDS011;6349;50.904;6.136;2022-07-23T01:34:49;4.20;;;3.80;;
12567;SDS011;6349;50.904;6.136;2022-07-23T01:36:50;5.40;;;4.90;;
12567;SDS011;6349;50.904;6.136;2022-07-23T01:38:50;5.03;;;4.57;;
12567;SDS011;6349;50.904;6.136;2022-07-23T01:40:51;5.82;;;5.28;;
12567;SDS011;6349;50.904;6.136;2022-07-23T01:42:52;6.43;;;5.88;;
12567;SDS011;6349;50.904;6.136;2022-07-23T01:44:52;6.60;;;6.00;;
12567;SDS011;6349;50.904;6.136;2022-07-23T01:46:53;6.13;;;5.63;;
12567;SDS011;6349;50.904;6.136;2022-07-23T01:48:55;6.22;;;5.63;;
12567;SDS011;6349;50.904;6.136;2022-07-23T01:50:55;7.85;;;6.00;;
12567;SDS011;6349;50.904;6.136;2022-07-23T01:52:56;5.03;;;4.63;;
12567;SDS011;6349;50.904;6.136;2022-07-23T01:54:57;6.10;;;5.53;;
12567;SDS011;6349;50.904;6.136;2022-07-23T01:56:57;5.95;;;5.40;;
12567;SDS011;6349;50.904;6.136;2022-07-23T01:58:58;4.82;;;4.43;;
12567;SDS011;6349;50.904;6.136;2022-07-23T02:00:59;5.07;;;4.63;;
12567;SDS011;6349;50.904;6.136;2022-07-23T02:03:00;4.85;;;4.35;;
12567;SDS011;6349;50.904;6.136;2022-07-23T02:05:00;4.85;;;4.28;;
12567;SDS011;6349;50.904;6.136;2022-07-23T02:07:01;4.53;;;4.13;;
12567;SDS011;6349;50.904;6.136;2022-07-23T02:09:02;4.65;;;4.25;;
12567;SDS011;6349;50.904;6.136;2022-07-23T02:11:03;5.43;;;4.70;;
12567;SDS011;6349;50.904;6.136;2022-07-23T02:13:04;5.13;;;4.63;;
12567;SDS011;6349;50.904;6.136;2022-07-23T02:15:05;4.68;;;4.28;;
12567;SDS011;6349;50.904;6.136;2022-07-23T02:17:06;4.78;;;4.38;;
12567;SDS011;6349;50.904;6.136;2022-07-23T02:19:07;4.25;;;3.42;;
12567;SDS011;6349;50.904;6.136;2022-07-23T02:21:07;5.35;;;4.85;;
12567;SDS011;6349;50.904;6.136;2022-07-23T02:23:08;4.95;;;4.55;;
12567;SDS011;6349;50.904;6.136;2022-07-23T02:25:09;4.72;;;4.18;;
12567;SDS011;6349;50.904;6.136;2022-07-23T02:27:09;4.88;;;4.47;;
12567;SDS011;6349;50.904;6.136;2022-07-23T02:29:10;5.20;;;4.70;;
12567;SDS011;6349;50.904;6.136;2022-07-23T02:31:11;4.97;;;4.57;;
12567;SDS011;6349;50.904;6.136;2022-07-23T02:33:11;5.38;;;4.88;;
12567;SDS011;6349;50.904;6.136;2022-07-23T02:35:12;5.53;;;5.03;;
12567;SDS011;6349;50.904;6.136;2022-07-23T02:37:12;5.07;;;4.38;;
12567;SDS011;6349;50.904;6.136;2022-07-23T02:39:13;4.95;;;4.47;;
12567;SDS011;6349;50.904;6.136;2022-07-23T02:41:14;5.20;;;4.65;;
12567;SDS011;6349;50.904;6.136;2022-07-23T02:43:15;4.28;;;3.90;;
12567;SDS011;6349;50.904;6.136;2022-07-23T02:45:15;3.90;;;3.60;;
12567;SDS011;6349;50.904;6.136;2022-07-23T02:47:16;3.75;;;3.45;;
12567;SDS011;6349;50.904;6.136;2022-07-23T02:49:16;4.40;;;3.97;;
12567;SDS011;6349;50.904;6.136;2022-07-23T02:51:17;3.80;;;3.50;;
12567;SDS011;6349;50.904;6.136;2022-07-23T02:53:18;3.65;;;3.35;;
12567;SDS011;6349;50.904;6.136;2022-07-23T02:55:18;3.22;;;2.92;;
12567;SDS011;6349;50.904;6.136;2022-07-23T02:57:19;2.80;;;2.60;;
12567;SDS011;6349;50.904;6.136;2022-07-23T02:59:19;3.00;;;2.80;;
12567;SDS011;6349;50.904;6.136;2022-07-23T03:01:20;2.72;;;2.53;;
12567;SDS011;6349;50.904;6.136;2022-07-23T03:03:20;2.80;;;2.60;;
12567;SDS011;6349;50.904;6.136;2022-07-23T03:05:21;2.70;;;2.50;;
12567;SDS011;6349;50.904;6.136;2022-07-23T03:07:22;2.75;;;2.55;;
12567;SDS011;6349;50.904;6.136;2022-07-23T03:09:22;3.25;;;2.72;;
12567;SDS011;6349;50.904;6.136;2022-07-23T03:11:23;2.80;;;2.60;;
12567;SDS011;6349;50.904;6.136;2022-07-23T03:13:23;3.20;;;3.00;;
12567;SDS011;6349;50.904;6.136;2022-07-23T03:15:24;3.30;;;3.10;;
12567;SDS011;6349;50.904;6.136;2022-07-23T03:17:25;3.58;;;3.28;;
12567;SDS011;6349;50.904;6.136;2022-07-23T03:19:25;3.40;;;3.10;;
12567;SDS011;6349;50.904;6.136;2022-07-23T03:21:26;3.17;;;2.97;;
12567;SDS011;6349;50.904;6.136;2022-07-23T03:23:27;3.22;;;3.03;;
12567;SDS011;6349;50.904;6.136;2022-07-23T03:25:28;3.47;;;3.17;;
12567;SDS011;6349;50.904;6.136;2022-07-23T03:27:29;3.35;;;3.15;;
12567;SDS011;6349;50.904;6.136;2022-07-23T03:29:30;2.88;;;2.67;;
12567;SDS011;6349;50.904;6.136;2022-07-23T03:31:32;3.08;;;2.88;;
12567;SDS011;6349;50.904;6.136;2022-07-23T03:33:33;2.50;;;2.40;;
12567;SDS011;6349;50.904;6.136;2022-07-23T03:35:34;2.55;;;2.45;;
12567;SDS011;6349;50.904;6.136;2022-07-23T03:37:35;2.55;;;2.35;;
12567;SDS011;6349;50.904;6.136;2022-07-23T03:39:36;3.58;;;2.80;;
12567;SDS011;6349;50.904;6.136;2022-07-23T03:41:36;2.85;;;2.65;;
12567;SDS011;6349;50.904;6.136;2022-07-23T03:43:37;2.95;;;2.75;;
12567;SDS011;6349;50.904;6.136;2022-07-23T03:45:37;3.30;;;3.10;;
12567;SDS011;6349;50.904;6.136;2022-07-23T03:47:38;4.15;;;3.75;;
12567;SDS011;6349;50.904;6.136;2022-07-23T03:49:39;3.88;;;3.58;;
12567;SDS011;6349;50.904;6.136;2022-07-23T03:51:40;3.90;;;3.60;;
12567;SDS011;6349;50.904;6.136;2022-07-23T03:53:41;3.67;;;3.45;;
12567;SDS011;6349;50.904;6.136;2022-07-23T03:55:41;2.90;;;2.70;;
12567;SDS011;6349;50.904;6.136;2022-07-23T03:57:42;2.80;;;2.60;;
12567;SDS011;6349;50.904;6.136;2022-07-23T03:59:43;3.15;;;2.85;;
12567;SDS011;6349;50.904;6.136;2022-07-23T04:01:44;3.10;;;2.90;;
12567;SDS011;6349;50.904;6.136;2022-07-23T04:03:44;3.30;;;3.00;;
12567;SDS011;6349;50.904;6.136;2022-07-23T04:05:46;4.30;;;4.00;;
12567;SDS011;6349;50.904;6.136;2022-07-23T04:07:46;3.92;;;3.63;;
12567;SDS011;6349;50.904;6.136;2022-07-23T04:09:47;3.97;;;3.55;;
12567;SDS011;6349;50.904;6.136;2022-07-23T04:11:48;4.00;;;3.70;;
12567;SDS011;6349;50.904;6.136;2022-07-23T04:13:49;3.97;;;3.67;;
12567;SDS011;6349;50.904;6.136;2022-07-23T04:15:50;4.10;;;3.80;;
12567;SDS011;6349;50.904;6.136;2022-07-23T04:17:50;4.30;;;3.90;;
12567;SDS011;6349;50.904;6.136;2022-07-23T04:19:51;3.70;;;3.40;;
12567;SDS011;6349;50.904;6.136;2022-07-23T04:21:51;3.78;;;3.47;;
12567;SDS011;6349;50.904;6.136;2022-07-23T04:23:52;3.40;;;3.20;;
12567;SDS011;6349;50.904;6.136;2022-07-23T04:25:53;3.85;;;3.55;;
12567;SDS011;6349;50.904;6.136;2022-07-23T04:27:53;3.40;;;3.20;;
12567;SDS011;6349;50.904;6.136;2022-07-23T04:29:54;2.80;;;2.60;;
12567;SDS011;6349;50.904;6.136;2022-07-23T04:31:55;2.67;;;2.47;;
12567;SDS011;6349;50.904;6.136;2022-07-23T04:33:55;1.80;;;1.70;;
12567;SDS011;6349;50.904;6.136;2022-07-23T04:35:56;1.73;;;1.63;;
12567;SDS011;6349;50.904;6.136;2022-07-23T04:37:57;1.40;;;1.40;;
12567;SDS011;6349;50.904;6.136;2022-07-23T04:39:57;1.50;;;1.40;;
12567;SDS011;6349;50.904;6.136;2022-07-23T04:41:58;1.60;;;1.50;;
12567;SDS011;6349;50.904;6.136;2022-07-23T04:43:58;1.60;;;1.50;;
12567;SDS011;6349;50.904;6.136;2022-07-23T04:45:59;1.60;;;1.50;;
12567;SDS011;6349;50.904;6.136;2022-07-23T04:48:00;1.70;;;1.60;;
12567;SDS011;6349;50.904;6.136;2022-07-23T04:50:01;1.73;;;1.63;;
12567;SDS011;6349;50.904;6.136;2022-07-23T04:52:02;2.00;;;1.90;;
12567;SDS011;6349;50.904;6.136;2022-07-23T04:54:02;2.20;;;2.10;;
12567;SDS011;6349;50.904;6.136;2022-07-23T04:56:03;2.92;;;2.72;;
12567;SDS011;6349;50.904;6.136;2022-07-23T04:58:04;2.60;;;2.40;;
12567;SDS011;6349;50.904;6.136;2022-07-23T05:00:05;2.58;;;2.38;;
12567;SDS011;6349;50.904;6.136;2022-07-23T05:02:07;2.10;;;2.00;;
12567;SDS011;6349;50.904;6.136;2022-07-23T05:04:07;2.42;;;2.22;;
12567;SDS011;6349;50.904;6.136;2022-07-23T05:06:08;2.65;;;2.20;;
12567;SDS011;6349;50.904;6.136;2022-07-23T05:08:09;2.70;;;2.50;;
12567;SDS011;6349;50.904;6.136;2022-07-23T05:10:10;2.40;;;2.22;;
12567;SDS011;6349;50.904;6.136;2022-07-23T05:12:10;2.67;;;2.47;;
12567;SDS011;6349;50.904;6.136;2022-07-23T05:14:11;2.70;;;2.50;;
12567;SDS011;6349;50.904;6.136;2022-07-23T05:16:12;3.08;;;2.80;;
12567;SDS011;6349;50.904;6.136;2022-07-23T05:18:13;2.78;;;2.58;;
12567;SDS011;6349;50.904;6.136;2022-07-23T05:20:13;3.50;;;3.30;;
12567;SDS011;6349;50.904;6.136;2022-07-23T05:22:14;3.30;;;3.10;;
12567;SDS011;6349;50.904;6.136;2022-07-23T05:24:15;3.78;;;3.47;;
12567;SDS011;6349;50.904;6.136;2022-07-23T05:26:16;3.40;;;3.20;;
12567;SDS011;6349;50.904;6.136;2022-07-23T05:28:16;3.90;;;3.63;;
12567;SDS011;6349;50.904;6.136;2022-07-23T05:30:17;4.40;;;4.05;;
12567;SDS011;6349;50.904;6.136;2022-07-23T05:32:18;5.07;;;4.60;;
12567;SDS011;6349;50.904;6.136;2022-07-23T05:34:18;5.72;;;4.60;;
12567;SDS011;6349;50.904;6.136;2022-07-23T05:36:19;4.90;;;4.50;;
12567;SDS011;6349;50.904;6.136;2022-07-23T05:38:19;4.60;;;4.20;;
12567;SDS011;6349;50.904;6.136;2022-07-23T05:40:20;4.38;;;3.97;;
12567;SDS011;6349;50.904;6.136;2022-07-23T05:42:21;5.45;;;4.80;;
12567;SDS011;6349;50.904;6.136;2022-07-23T05:44:21;6.22;;;5.38;;
12567;SDS011;6349;50.904;6.136;2022-07-23T05:46:22;5.22;;;4.53;;
12567;SDS011;6349;50.904;6.136;2022-07-23T05:48:22;5.03;;;4.50;;
12567;SDS011;6349;50.904;6.136;2022-07-23T05:50:23;5.65;;;4.55;;
12567;SDS011;6349;50.904;6.136;2022-07-23T05:52:23;4.57;;;4.18;;
12567;SDS011;6349;50.904;6.136;2022-07-23T05:54:24;4.43;;;4.03;;
12567;SDS011;6349;50.904;6.136;2022-07-23T05:56:25;4.80;;;4.35;;
12567;SDS011;6349;50.904;6.136;2022-07-23T05:58:25;4.97;;;4.47;;
12567;SDS011;6349;50.904;6.136;2022-07-23T06:00:26;5.30;;;4.82;;
12567;SDS011;6349;50.904;6.136;2022-07-23T06:02:27;4.65;;;4.25;;
12567;SDS011;6349;50.904;6.136;2022-07-23T06:04:28;4.80;;;4.40;;
12567;SDS011;6349;50.904;6.136;2022-07-23T06:06:28;5.38;;;4.80;;
12567;SDS011;6349;50.904;6.136;2022-07-23T06:08:29;5.18;;;4.65;;
12567;SDS011;6349;50.904;6.136;2022-07-23T06:10:29;6.03;;;5.53;;
12567;SDS011;6349;50.904;6.136;2022-07-23T06:12:30;5.93;;;5.43;;
12567;SDS011;6349;50.904;6.136;2022-07-23T06:14:31;6.10;;;5.53;;
12567;SDS011;6349;50.904;6.136;2022-07-23T06:16:31;4.65;;;4.32;;
12567;SDS011;6349;50.904;6.136;2022-07-23T06:18:32;6.50;;;5.93;;
12567;SDS011;6349;50.904;6.136;2022-07-23T06:20:33;6.50;;;5.93;;
12567;SDS011;6349;50.904;6.136;2022-07-23T06:22:34;6.07;;;5.57;;
12567;SDS011;6349;50.904;6.136;2022-07-23T06:24:35;5.90;;;5.30;;
12567;SDS011;6349;50.904;6.136;2022-07-23T06:26:36;7.03;;;6.43;;
12567;SDS011;6349;50.904;6.136;2022-07-23T06:28:36;7.82;;;7.13;;
12567;SDS011;6349;50.904;6.136;2022-07-23T06:30:37;6.68;;;6.18;;
12567;SDS011;6349;50.904;6.136;2022-07-23T06:32:38;9.05;;;8.18;;
12567;SDS011;6349;50.904;6.136;2022-07-23T06:34:38;9.13;;;8.35;;
12567;SDS011;6349;50.904;6.136;2022-07-23T06:36:39;9.27;;;8.38;;
12567;SDS011;6349;50.904;6.136;2022-07-23T06:38:40;9.30;;;8.40;;
12567;SDS011;6349;50.904;6.136;2022-07-23T06:40:40;10.10;;;9.30;;
12567;SDS011;6349;50.904;6.136;2022-07-23T06:42:41;10.93;;;9.93;;
12567;SDS011;6349;50.904;6.136;2022-07-23T06:44:42;10.80;;;9.80;;
12567;SDS011;6349;50.904;6.136;2022-07-23T06:46:42;11.60;;;9.88;;
12567;SDS011;6349;50.904;6.136;2022-07-23T06:48:43;11.50;;;10.20;;
12567;SDS011;6349;50.904;6.136;2022-07-23T06:50:43;9.25;;;8.38;;
12567;SDS011;6349;50.904;6.136;2022-07-23T06:52:44;10.68;;;9.13;;
12567;SDS011;6349;50.904;6.136;2022-07-23T06:54:45;11.20;;;10.05;;
12567;SDS011;6349;50.904;6.136;2022-07-23T06:56:45;10.65;;;9.75;;
12567;SDS011;6349;50.904;6.136;2022-07-23T06:58:46;11.07;;;9.88;;
12567;SDS011;6349;50.904;6.136;2022-07-23T07:00:46;11.52;;;10.45;;
12567;SDS011;6349;50.904;6.136;2022-07-23T07:02:47;12.68;;;11.43;;
12567;SDS011;6349;50.904;6.136;2022-07-23T07:04:48;11.20;;;10.07;;
12567;SDS011;6349;50.904;6.136;2022-07-23T07:06:49;11.88;;;10.73;;
12567;SDS011;6349;50.904;6.136;2022-07-23T07:08:49;10.98;;;10.07;;
12567;SDS011;6349;50.904;6.136;2022-07-23T07:10:50;13.32;;;12.02;;
12567;SDS011;6349;50.904;6.136;2022-07-23T07:12:51;11.57;;;10.48;;
12567;SDS011;6349;50.904;6.136;2022-07-23T07:14:51;12.75;;;11.48;;
12567;SDS011;6349;50.904;6.136;2022-07-23T07:16:53;13.32;;;11.88;;
12567;SDS011;6349;50.904;6.136;2022-07-23T07:18:54;14.07;;;12.65;;
12567;SDS011;6349;50.904;6.136;2022-07-23T07:20:54;14.77;;;13.30;;
12567;SDS011;6349;50.904;6.136;2022-07-23T07:22:56;14.32;;;13.05;;
12567;SDS011;6349;50.904;6.136;2022-07-23T07:24:57;14.20;;;12.80;;
12567;SDS011;6349;50.904;6.136;2022-07-23T07:26:57;14.90;;;13.27;;
12567;SDS011;6349;50.904;6.136;2022-07-23T07:28:58;14.00;;;12.68;;
12567;SDS011;6349;50.904;6.136;2022-07-23T07:30:59;14.57;;;13.27;;
12567;SDS011;6349;50.904;6.136;2022-07-23T07:32:59;15.05;;;13.55;;
12567;SDS011;6349;50.904;6.136;2022-07-23T07:35:00;14.30;;;13.00;;
12567;SDS011;6349;50.904;6.136;2022-07-23T07:37:01;11.90;;;10.80;;
12567;SDS011;6349;50.904;6.136;2022-07-23T07:39:01;13.88;;;12.48;;
12567;SDS011;6349;50.904;6.136;2022-07-23T07:41:02;12.45;;;11.25;;
12567;SDS011;6349;50.904;6.136;2022-07-23T07:43:03;12.38;;;11.27;;
12567;SDS011;6349;50.904;6.136;2022-07-23T07:45:03;12.25;;;11.10;;
12567;SDS011;6349;50.904;6.136;2022-07-23T07:47:04;12.75;;;11.65;;
12567;SDS011;6349;50.904;6.136;2022-07-23T07:49:05;12.70;;;11.40;;
12567;SDS011;6349;50.904;6.136;2022-07-23T07:51:05;11.25;;;10.25;;
12567;SDS011;6349;50.904;6.136;2022-07-23T07:53:06;12.48;;;11.38;;
12567;SDS011;6349;50.904;6.136;2022-07-23T07:55:08;13.10;;;11.80;;
12567;SDS011;6349;50.904;6.136;2022-07-23T07:57:09;12.90;;;11.68;;
12567;SDS011;6349;50.904;6.136;2022-07-23T07:59:10;11.48;;;10.38;;
12567;SDS011;6349;50.904;6.136;2022-07-23T08:01:11;11.82;;;10.73;;
12567;SDS011;6349;50.904;6.136;2022-07-23T08:03:12;11.77;;;10.63;;
12567;SDS011;6349;50.904;6.136;2022-07-23T08:05:13;12.75;;;11.55;;
12567;SDS011;6349;50.904;6.136;2022-07-23T08:07:14;12.95;;;11.57;;
12567;SDS011;6349;50.904;6.136;2022-07-23T08:09:15;11.98;;;10.85;;
12567;SDS011;6349;50.904;6.136;2022-07-23T08:11:16;11.50;;;9.60;;
12567;SDS011;6349;50.904;6.136;2022-07-23T08:13:16;10.85;;;9.85;;
12567;SDS011;6349;50.904;6.136;2022-07-23T08:15:18;11.85;;;10.65;;
12567;SDS011;6349;50.904;6.136;2022-07-23T08:17:19;10.15;;;9.13;;
12567;SDS011;6349;50.904;6.136;2022-07-23T08:19:20;10.85;;;9.75;;
12567;SDS011;6349;50.904;6.136;2022-07-23T08:21:21;10.30;;;9.27;;
12567;SDS011;6349;50.904;6.136;2022-07-23T08:23:21;10.15;;;9.15;;
12567;SDS011;6349;50.904;6.136;2022-07-23T08:25:26;9.95;;;9.05;;
12567;SDS011;6349;50.904;6.136;2022-07-23T08:27:28;11.20;;;9.55;;
12567;SDS011;6349;50.904;6.136;2022-07-23T08:29:28;10.15;;;8.82;;
12567;SDS011;6349;50.904;6.136;2022-07-23T08:31:29;9.63;;;8.73;;
12567;SDS011;6349;50.904;6.136;2022-07-23T08:33:29;9.82;;;8.85;;
12567;SDS011;6349;50.904;6.136;2022-07-23T08:35:32;9.65;;;8.60;;
12567;SDS011;6349;50.904;6.136;2022-07-23T08:37:34;8.35;;;7.55;;
12567;SDS011;6349;50.904;6.136;2022-07-23T08:39:35;7.85;;;7.05;;
12567;SDS011;6349;50.904;6.136;2022-07-23T08:41:35;8.23;;;7.38;;
12567;SDS011;6349;50.904;6.136;2022-07-23T08:43:39;7.22;;;6.53;;
12567;SDS011;6349;50.904;6.136;2022-07-23T08:45:41;9.25;;;7.78;;
12567;SDS011;6349;50.904;6.136;2022-07-23T08:47:44;9.57;;;8.68;;
12567;SDS011;6349;50.904;6.136;2022-07-23T08:49:45;9.68;;;8.75;;
12567;SDS011;6349;50.904;6.136;2022-07-23T08:51:47;10.02;;;9.07;;
12567;SDS011;6349;50.904;6.136;2022-07-23T08:53:48;10.00;;;9.10;;
12567;SDS011;6349;50.904;6.136;2022-07-23T08:55:52;9.77;;;8.88;;
12567;SDS011;6349;50.904;6.136;2022-07-23T08:57:55;11.95;;;9.68;;
12567;SDS011;6349;50.904;6.136;2022-07-23T08:59:56;10.60;;;9.57;;
12567;SDS011;6349;50.904;6.136;2022-07-23T09:01:56;12.30;;;9.15;;
12567;SDS011;6349;50.904;6.136;2022-07-23T09:03:57;9.90;;;8.75;;
12567;SDS011;6349;50.904;6.136;2022-07-23T09:05:58;9.10;;;7.90;;
12567;SDS011;6349;50.904;6.136;2022-07-23T09:08:10;9.70;;;8.80;;
12567;SDS011;6349;50.904;6.136;2022-07-23T09:10:44;8.73;;;7.82;;
12567;SDS011;6349;50.904;6.136;2022-07-23T09:12:50;8.52;;;7.75;;
12567;SDS011;6349;50.904;6.136;2022-07-23T09:14:51;10.45;;;9.40;;
12567;SDS011;6349;50.904;6.136;2022-07-23T09:16:52;9.27;;;8.10;;
12567;SDS011;6349;50.904;6.136;2022-07-23T09:18:54;8.70;;;7.82;;
12567;SDS011;6349;50.904;6.136;2022-07-23T09:21:18;9.65;;;8.75;;
12567;SDS011;6349;50.904;6.136;2022-07-23T09:23:21;9.55;;;8.63;;
12567;SDS011;6349;50.904;6.136;2022-07-23T09:25:37;9.25;;;8.20;;
12567;SDS011;6349;50.904;6.136;2022-07-23T09:27:45;9.25;;;8.45;;
12567;SDS011;6349;50.904;6.136;2022-07-23T09:29:55;8.50;;;7.57;;
12567;SDS011;6349;50.904;6.136;2022-07-23T09:31:57;8.85;;;7.95;;
12567;SDS011;6349;50.904;6.136;2022-07-23T09:34:06;9.30;;;8.50;;
12567;SDS011;6349;50.904;6.136;2022-07-23T09:36:08;9.18;;;8.35;;
12567;SDS011;6349;50.904;6.136;2022-07-23T09:38:09;9.63;;;8.55;;
12567;SDS011;6349;50.904;6.136;2022-07-23T09:40:10;10.55;;;9.65;;
12567;SDS011;6349;50.904;6.136;2022-07-23T09:44:24;9.20;;;8.30;;
12567;SDS011;6349;50.904;6.136;2022-07-23T09:46:25;8.85;;;8.15;;
12567;SDS011;6349;50.904;6.136;2022-07-23T09:48:27;8.68;;;7.72;;
12567;SDS011;6349;50.904;6.136;2022-07-23T09:50:28;7.68;;;6.97;;
12567;SDS011;6349;50.904;6.136;2022-07-23T09:52:29;9.15;;;8.23;;
12567;SDS011;6349;50.904;6.136;2022-07-23T09:54:38;8.98;;;8.07;;
12567;SDS011;6349;50.904;6.136;2022-07-23T09:56:40;10.85;;;8.07;;
12567;SDS011;6349;50.904;6.136;2022-07-23T09:58:43;8.10;;;7.40;;
12567;SDS011;6349;50.904;6.136;2022-07-23T10:00:49;7.55;;;6.82;;
12567;SDS011;6349;50.904;6.136;2022-07-23T10:02:50;7.07;;;6.05;;
12567;SDS011;6349;50.904;6.136;2022-07-23T10:04:53;7.53;;;6.05;;
12567;SDS011;6349;50.904;6.136;2022-07-23T10:06:56;6.93;;;6.15;;
12567;SDS011;6349;50.904;6.136;2022-07-23T10:08:58;7.45;;;6.35;;
12567;SDS011;6349;50.904;6.136;2022-07-23T10:11:01;6.72;;;6.13;;
12567;SDS011;6349;50.904;6.136;2022-07-23T10:13:03;6.78;;;6.07;;
12567;SDS011;6349;50.904;6.136;2022-07-23T10:15:16;7.28;;;6.50;;
12567;SDS011;6349;50.904;6.136;2022-07-23T10:17:17;6.53;;;5.93;;
12567;SDS011;6349;50.904;6.136;2022-07-23T10:19:18;7.65;;;6.50;;
12567;SDS011;6349;50.904;6.136;2022-07-23T10:23:57;7.10;;;6.40;;
12567;SDS011;6349;50.904;6.136;2022-07-23T10:26:28;8.55;;;6.43;;
12567;SDS011;6349;50.904;6.136;2022-07-23T10:31:14;5.80;;;5.30;;
12567;SDS011;6349;50.904;6.136;2022-07-23T10:36:21;4.85;;;4.32;;
12567;SDS011;6349;50.904;6.136;2022-07-23T10:38:27;5.43;;;4.93;;
12567;SDS011;6349;50.904;6.136;2022-07-23T10:40:33;5.47;;;4.97;;
12567;SDS011;6349;50.904;6.136;2022-07-23T10:42:34;5.63;;;4.97;;
12567;SDS011;6349;50.904;6.136;2022-07-23T10:44:39;5.90;;;4.57;;
12567;SDS011;6349;50.904;6.136;2022-07-23T10:46:58;5.40;;;4.82;;
12567;SDS011;6349;50.904;6.136;2022-07-23T10:49:25;4.50;;;4.00;;
12567;SDS011;6349;50.904;6.136;2022-07-23T10:51:28;5.35;;;4.85;;
12567;SDS011;6349;50.904;6.136;2022-07-23T10:53:29;5.40;;;4.70;;
12567;SDS011;6349;50.904;6.136;2022-07-23T10:55:50;5.25;;;4.80;;
12567;SDS011;6349;50.904;6.136;2022-07-23T10:57:51;3.80;;;3.50;;
12567;SDS011;6349;50.904;6.136;2022-07-23T11:02:20;5.88;;;4.60;;
12567;SDS011;6349;50.904;6.136;2022-07-23T11:04:46;6.53;;;5.80;;
12567;SDS011;6349;50.904;6.136;2022-07-23T11:11:28;19.02;;;5.50;;
12567;SDS011;6349;50.904;6.136;2022-07-23T11:13:30;7.22;;;5.50;;
12567;SDS011;6349;50.904;6.136;2022-07-23T11:15:32;5.60;;;4.55;;
12567;SDS011;6349;50.904;6.136;2022-07-23T11:18:02;6.15;;;4.13;;
12567;SDS011;6349;50.904;6.136;2022-07-23T11:22:09;5.38;;;4.88;;
12567;SDS011;6349;50.904;6.136;2022-07-23T11:24:50;4.63;;;4.18;;
12567;SDS011;6349;50.904;6.136;2022-07-23T11:26:57;4.78;;;4.32;;
12567;SDS011;6349;50.904;6.136;2022-07-23T11:29:37;5.72;;;5.20;;
12567;SDS011;6349;50.904;6.136;2022-07-23T11:31:26;5.03;;;4.53;;
12567;SDS011;6349;50.904;6.136;2022-07-23T11:33:26;4.50;;;4.20;;
12567;SDS011;6349;50.904;6.136;2022-07-23T11:35:28;4.55;;;4.15;;
12567;SDS011;6349;50.904;6.136;2022-07-23T11:37:37;4.50;;;4.10;;
12567;SDS011;6349;50.904;6.136;2022-07-23T11:39:40;5.10;;;4.10;;
12567;SDS011;6349;50.904;6.136;2022-07-23T11:41:43;4.70;;;3.80;;
12567;SDS011;6349;50.904;6.136;2022-07-23T11:43:44;4.55;;;4.15;;
12567;SDS011;6349;50.904;6.136;2022-07-23T11:45:46;3.90;;;3.60;;
12567;SDS011;6349;50.904;6.136;2022-07-23T11:47:48;6.15;;;4.68;;
12567;SDS011;6349;50.904;6.136;2022-07-23T11:49:55;3.70;;;3.40;;
12567;SDS011;6349;50.904;6.136;2022-07-23T11:52:07;4.35;;;3.95;;
12567;SDS011;6349;50.904;6.136;2022-07-23T11:54:09;4.32;;;4.00;;
12567;SDS011;6349;50.904;6.136;2022-07-23T11:56:10;3.55;;;3.25;;
12567;SDS011;6349;50.904;6.136;2022-07-23T11:58:11;3.35;;;3.05;;
12567;SDS011;6349;50.904;6.136;2022-07-23T12:00:13;3.58;;;3.28;;
12567;SDS011;6349;50.904;6.136;2022-07-23T12:02:15;3.97;;;3.38;;
12567;SDS011;6349;50.904;6.136;2022-07-23T12:04:16;3.40;;;3.10;;
12567;SDS011;6349;50.904;6.136;2022-07-23T12:06:16;5.03;;;3.50;;
12567;SDS011;6349;50.904;6.136;2022-07-23T12:08:18;5.03;;;3.60;;
12567;SDS011;6349;50.904;6.136;2022-07-23T12:10:22;5.85;;;3.67;;
12567;SDS011;6349;50.904;6.136;2022-07-23T12:15:05;3.88;;;3.33;;
12567;SDS011;6349;50.904;6.136;2022-07-23T12:17:09;3.28;;;2.90;;
12567;SDS011;6349;50.904;6.136;2022-07-23T12:19:10;4.38;;;3.40;;
12567;SDS011;6349;50.904;6.136;2022-07-23T12:21:11;3.40;;;3.10;;
12567;SDS011;6349;50.904;6.136;2022-07-23T12:23:13;5.25;;;3.10;;
12567;SDS011;6349;50.904;6.136;2022-07-23T12:25:16;3.30;;;3.10;;
12567;SDS011;6349;50.904;6.136;2022-07-23T12:27:21;3.83;;;3.53;;
12567;SDS011;6349;50.904;6.136;2022-07-23T12:29:23;3.17;;;2.88;;
12567;SDS011;6349;50.904;6.136;2022-07-23T12:31:34;3.20;;;2.88;;
12567;SDS011;6349;50.904;6.136;2022-07-23T12:33:37;3.22;;;2.92;;
12567;SDS011;6349;50.904;6.136;2022-07-23T12:35:42;3.50;;;2.63;;
12567;SDS011;6349;50.904;6.136;2022-07-23T12:37:45;3.00;;;2.70;;
12567;SDS011;6349;50.904;6.136;2022-07-23T12:39:47;3.30;;;2.70;;
12567;SDS011;6349;50.904;6.136;2022-07-23T12:41:51;4.47;;;2.80;;
12567;SDS011;6349;50.904;6.136;2022-07-23T12:43:52;3.03;;;2.83;;
12567;SDS011;6349;50.904;6.136;2022-07-23T12:47:57;3.20;;;2.38;;
12567;SDS011;6349;50.904;6.136;2022-07-23T12:50:08;3.30;;;3.00;;